Time;durP1;ratioP1;P1;durP2;ratioP2;P2;SDS_P1;SDS_P2;PMS_P1;PMS_P2;Temp;Humidity;BMP_temperature;BMP_pressure;BME280_temperature;BME280_humidity;BME280_pressure;Samples;Min_cycle;Max_cycle;Signal;HPM_P1;HPM_P2
2022/05/07 00:01:37;;;;;;;10.35;5.13;;;8.80;99.90;;;;;;4948578;28;20035;-81
2022/05/07 00:04:03;;;;;;;8.27;4.70;;;8.70;99.90;;;;;;4947270;28;20609;-78
2022/05/07 00:06:28;;;;;;;7.43;4.57;;;8.70;99.90;;;;;;4947198;28;20086;-78
2022/05/07 00:08:54;;;;;;;8.60;4.60;;;8.70;99.90;;;;;;4946278;28;20027;-78
2022/05/07 00:11:22;;;;;;;6.43;4.07;;;8.70;99.90;;;;;;4948052;28;20381;-82
2022/05/07 00:13:49;;;;;;;7.22;4.47;;;8.60;99.90;;;;;;4949221;28;20028;-79
2022/05/07 00:19:00;;;;;;;7.28;5.20;;;8.40;99.90;;;;;;4950327;28;20165;-78
2022/05/07 00:21:26;;;;;;;7.22;4.90;;;8.30;99.90;;;;;;4946497;28;20086;-78
2022/05/07 00:23:51;;;;;;;8.25;5.20;;;8.30;99.90;;;;;;4948086;28;20069;-80
2022/05/07 00:26:17;;;;;;;7.70;5.10;;;8.30;99.90;;;;;;4948047;28;20023;-80
2022/05/07 00:28:44;;;;;;;8.52;5.85;;;8.20;99.90;;;;;;4947410;28;20094;-81
2022/05/07 00:31:10;;;;;;;8.32;4.97;;;8.30;99.90;;;;;;4951503;28;20114;-79
2022/05/07 00:33:36;;;;;;;7.50;5.88;;;8.20;99.90;;;;;;4947930;28;20552;-78
2022/05/07 00:36:02;;;;;;;8.70;5.78;;;8.10;99.90;;;;;;4947652;28;20035;-78
2022/05/07 00:38:28;;;;;;;10.00;6.20;;;8.00;99.90;;;;;;4980916;28;20062;-78
2022/05/07 00:40:53;;;;;;;11.02;6.88;;;8.00;99.90;;;;;;4987368;28;20101;-78
2022/05/07 00:43:19;;;;;;;12.75;6.32;;;7.90;99.90;;;;;;5002339;28;20198;-78
2022/05/07 00:45:46;;;;;;;9.95;6.57;;;7.80;99.90;;;;;;5003116;28;20117;-78
2022/05/07 00:48:15;;;;;;;14.27;6.00;;;7.90;99.90;;;;;;4985916;28;20057;-78
2022/05/07 00:53:27;;;;;;;8.13;5.15;;;7.90;99.90;;;;;;4987654;28;20041;-78
2022/05/07 00:55:53;;;;;;;7.68;4.97;;;7.80;99.90;;;;;;4986231;28;20423;-78
2022/05/07 00:58:19;;;;;;;17.52;7.65;;;7.70;99.90;;;;;;5002418;28;20037;-78
2022/05/07 01:00:45;;;;;;;8.93;4.78;;;7.60;99.90;;;;;;4987970;28;20398;-78
2022/05/07 01:03:11;;;;;;;8.85;5.80;;;7.50;99.90;;;;;;5002201;28;20483;-78
2022/05/07 01:05:38;;;;;;;9.90;5.90;;;7.50;99.90;;;;;;4987872;28;20611;-78
2022/05/07 01:08:05;;;;;;;18.83;6.90;;;7.40;99.90;;;;;;4987549;28;20026;-78
2022/05/07 01:10:31;;;;;;;15.60;5.20;;;7.50;99.90;;;;;;4987203;28;20054;-78
2022/05/07 01:12:57;;;;;;;10.77;5.15;;;7.50;99.90;;;;;;4987341;28;20030;-79
2022/05/07 01:15:24;;;;;;;10.52;5.20;;;7.40;99.90;;;;;;5002751;28;20034;-79
2022/05/07 01:17:50;;;;;;;9.27;6.93;;;7.30;99.90;;;;;;4986250;28;20034;-78
2022/05/07 01:20:17;;;;;;;10.45;6.80;;;;;;;;;;4986980;28;20479;-78
2022/05/07 01:22:44;;;;;;;15.70;7.88;;;7.30;99.90;;;;;;4986383;28;20034;-79
2022/05/07 01:25:09;;;;;;;14.02;7.97;;;7.20;99.90;;;;;;4988593;28;20503;-79
2022/05/07 01:27:35;;;;;;;17.52;8.68;;;7.30;99.90;;;;;;4985974;28;20057;-78
2022/05/07 01:30:01;;;;;;;15.73;6.13;;;7.30;99.90;;;;;;4988040;28;20042;-78
2022/05/07 01:32:27;;;;;;;20.48;6.28;;;7.30;99.90;;;;;;4987477;28;20455;-78
2022/05/07 01:34:53;;;;;;;16.10;6.35;;;7.40;99.90;;;;;;4987651;28;20117;-78
2022/05/07 01:37:19;;;;;;;8.18;5.50;;;7.30;99.90;;;;;;4981464;28;20211;-78
2022/05/07 01:39:45;;;;;;;10.23;5.60;;;7.20;99.90;;;;;;4984786;28;20035;-79
2022/05/07 01:42:11;;;;;;;13.13;7.53;;;;;;;;;;4972708;28;20487;-78
2022/05/07 01:44:37;;;;;;;18.85;10.15;;;7.10;99.90;;;;;;4970726;28;20464;-78
2022/05/07 01:49:47;;;;;;;8.90;5.32;;;7.30;99.90;;;;;;4972323;28;20110;-78
2022/05/07 01:52:14;;;;;;;9.20;5.43;;;7.10;99.90;;;;;;4970010;28;20507;-78
2022/05/07 01:54:39;;;;;;;9.07;4.97;;;7.00;99.90;;;;;;4969866;28;20077;-78
2022/05/07 01:57:05;;;;;;;7.45;5.32;;;6.90;99.90;;;;;;4971523;28;20555;-78
2022/05/07 01:59:31;;;;;;;8.50;5.90;;;6.70;99.90;;;;;;4969740;28;20117;-78
2022/05/07 02:01:57;;;;;;;14.63;6.97;;;6.80;99.90;;;;;;4971412;28;20121;-78
2022/05/07 02:04:23;;;;;;;13.15;7.75;;;6.70;99.90;;;;;;4969818;28;20081;-78
2022/05/07 02:06:48;;;;;;;18.02;8.75;;;6.80;99.90;;;;;;4969673;28;20050;-78
2022/05/07 02:09:14;;;;;;;16.30;8.30;;;7.00;99.90;;;;;;4970205;28;20041;-78
2022/05/07 02:11:40;;;;;;;12.57;6.65;;;7.00;99.90;;;;;;4971744;28;20082;-79
2022/05/07 02:14:05;;;;;;;9.98;4.60;;;6.90;99.90;;;;;;4969669;28;20029;-79
2022/05/07 02:16:31;;;;;;;9.38;5.32;;;6.80;99.90;;;;;;4969710;28;20035;-78
2022/05/07 02:18:57;;;;;;;6.82;4.93;;;6.60;99.90;;;;;;4970240;28;20054;-78
2022/05/07 02:21:23;;;;;;;8.98;5.50;;;6.50;99.90;;;;;;4969291;28;20026;-78
2022/05/07 02:23:48;;;;;;;8.35;5.18;;;6.40;99.90;;;;;;4969380;28;20061;-78
2022/05/07 02:26:14;;;;;;;10.75;5.72;;;6.30;99.90;;;;;;4969831;28;20027;-78
2022/05/07 02:28:40;;;;;;;9.35;6.07;;;6.40;99.90;;;;;;4970652;28;20186;-78
2022/05/07 02:31:05;;;;;;;10.27;5.95;;;6.30;99.90;;;;;;4968739;28;20023;-79
2022/05/07 02:33:31;;;;;;;13.93;7.20;;;6.30;99.90;;;;;;4969594;28;20027;-78
2022/05/07 02:35:57;;;;;;;12.93;7.35;;;6.40;99.90;;;;;;4970523;28;20413;-78
2022/05/07 02:38:22;;;;;;;18.35;6.82;;;6.40;99.90;;;;;;4984923;28;20070;-78
2022/05/07 02:43:32;;;;;;;8.27;4.85;;;6.30;99.90;;;;;;4992260;28;20081;-78
2022/05/07 02:45:58;;;;;;;9.45;5.80;;;6.20;99.90;;;;;;4975567;28;20034;-78
2022/05/07 02:48:25;;;;;;;9.13;5.60;;;6.20;99.90;;;;;;5008258;28;20034;-78
2022/05/07 02:50:51;;;;;;;11.25;5.72;;;6.20;99.90;;;;;;4990611;28;20018;-79
2022/05/07 02:53:16;;;;;;;14.77;7.57;;;6.20;99.90;;;;;;4989756;28;20290;-78
2022/05/07 02:55:42;;;;;;;23.38;7.43;;;6.20;99.90;;;;;;4989065;28;20045;-78
2022/05/07 02:58:08;;;;;;;24.13;9.20;;;6.10;99.90;;;;;;4991326;28;20030;-78
2022/05/07 03:00:34;;;;;;;15.63;7.13;;;6.30;99.90;;;;;;4990049;28;20403;-78
2022/05/07 03:03:00;;;;;;;16.35;6.72;;;6.30;99.90;;;;;;4992327;28;20038;-78
2022/05/07 03:05:28;;;;;;;14.82;5.80;;;6.20;99.90;;;;;;4992458;28;20364;-79
2022/05/07 03:07:57;;;;;;;17.63;8.70;;;6.00;99.90;;;;;;4993620;28;20113;-79
2022/05/07 03:10:23;;;;;;;13.57;7.35;;;6.00;99.90;;;;;;4992012;28;20499;-79
2022/05/07 03:12:49;;;;;;;16.23;8.50;;;6.10;99.90;;;;;;4991733;28;20038;-79
2022/05/07 03:15:14;;;;;;;12.15;7.63;;;6.20;99.90;;;;;;4991780;28;20487;-78
2022/05/07 03:17:40;;;;;;;12.15;6.35;;;6.20;99.90;;;;;;4993191;28;20034;-78
2022/05/07 03:20:09;;;;;;;11.85;6.50;;;6.10;99.90;;;;;;4993168;28;20014;-79
2022/05/07 03:22:35;;;;;;;11.35;7.15;;;6.00;99.90;;;;;;4995465;28;20045;-78
2022/05/07 03:25:01;;;;;;;13.55;5.65;;;6.00;99.90;;;;;;4999608;28;20030;-79
2022/05/07 03:27:29;;;;;;;9.38;6.25;;;6.00;99.90;;;;;;4999116;28;20487;-78
2022/05/07 03:29:55;;;;;;;24.88;7.45;;;5.90;99.90;;;;;;4989764;28;20373;-78
2022/05/07 03:32:20;;;;;;;17.98;6.70;;;6.00;99.90;;;;;;4987695;28;20457;-78
2022/05/07 03:34:46;;;;;;;56.28;7.85;;;6.10;99.90;;;;;;4987643;28;20035;-78
2022/05/07 03:37:12;;;;;;;19.33;7.22;;;6.10;99.90;;;;;;4988980;28;20026;-78
2022/05/07 03:39:38;;;;;;;9.32;5.53;;;6.10;99.90;;;;;;4987988;28;20031;-78
2022/05/07 03:42:04;;;;;;;21.95;6.72;;;6.10;99.90;;;;;;4989290;28;20297;-79
2022/05/07 03:44:29;;;;;;;9.70;6.10;;;6.10;99.90;;;;;;4989915;28;20038;-78
2022/05/07 03:46:55;;;;;;;14.40;6.45;;;6.00;99.90;;;;;;4990123;28;20352;-78
2022/05/07 03:49:22;;;;;;;13.45;7.35;;;6.00;99.90;;;;;;4989893;28;20511;-78
2022/05/07 03:54:32;;;;;;;11.77;6.18;;;6.10;99.90;;;;;;4988179;28;20089;-79
2022/05/07 03:56:57;;;;;;;10.98;5.80;;;6.10;99.90;;;;;;4989610;28;20034;-79
2022/05/07 03:59:23;;;;;;;11.35;6.13;;;6.20;99.90;;;;;;4989606;28;20109;-79
2022/05/07 04:01:49;;;;;;;13.88;7.57;;;6.10;99.90;;;;;;4986809;28;20038;-79
2022/05/07 04:04:15;;;;;;;11.95;6.97;;;6.20;99.90;;;;;;4988537;28;20046;-78
2022/05/07 04:06:40;;;;;;;16.45;6.88;;;6.30;99.90;;;;;;5003770;28;20030;-78
2022/05/07 04:09:06;;;;;;;12.27;6.65;;;6.30;99.90;;;;;;4990724;28;20050;-79
2022/05/07 04:11:31;;;;;;;17.02;7.47;;;6.30;99.90;;;;;;4988592;28;20290;-79
2022/05/07 04:13:57;;;;;;;14.80;7.03;;;6.40;99.90;;;;;;5003363;28;20034;-78
2022/05/07 04:16:23;;;;;;;14.93;6.93;;;6.50;99.90;;;;;;4989380;28;20019;-79
2022/05/07 04:18:48;;;;;;;13.68;7.30;;;6.50;99.90;;;;;;5004499;28;20034;-79
2022/05/07 04:21:14;;;;;;;20.65;8.57;;;6.40;99.90;;;;;;5003155;28;20132;-79
2022/05/07 04:23:40;;;;;;;20.08;7.60;;;6.50;99.90;;;;;;4988613;28;20105;-79
2022/05/07 04:26:05;;;;;;;24.67;9.98;;;6.60;99.90;;;;;;4987873;28;20031;-78
2022/05/07 04:28:31;;;;;;;31.17;9.07;;;6.60;99.90;;;;;;4987435;28;20058;-78
2022/05/07 04:30:56;;;;;;;27.80;9.07;;;6.80;99.90;;;;;;5002944;28;20026;-79
2022/05/07 04:33:25;;;;;;;22.52;8.98;;;6.70;99.90;;;;;;4987818;28;20026;-79
2022/05/07 04:35:51;;;;;;;48.05;10.05;;;6.80;99.90;;;;;;5002919;28;20023;-79
2022/05/07 04:38:17;;;;;;;23.25;9.30;;;6.90;99.90;;;;;;4971191;28;20057;-78
2022/05/07 04:40:43;;;;;;;30.85;9.02;;;7.10;99.90;;;;;;4968227;28;20027;-78
2022/05/07 04:43:09;;;;;;;41.63;9.82;;;7.20;99.90;;;;;;4967772;28;20058;-78
2022/05/07 04:45:35;;;;;;;40.33;11.93;;;7.20;99.90;;;;;;4967294;28;20023;-79
2022/05/07 04:48:01;;;;;;;83.43;12.07;;;7.30;99.90;;;;;;4967023;28;20507;-78
2022/05/07 04:50:26;;;;;;;28.63;9.88;;;7.20;99.90;;;;;;4966611;28;20019;-78
2022/05/07 04:52:52;;;;;;;41.42;10.65;;;7.30;99.90;;;;;;4966730;28;20137;-78
2022/05/07 04:55:18;;;;;;;24.38;8.85;;;7.30;99.90;;;;;;4968028;28;20209;-78
2022/05/07 04:57:43;;;;;;;44.65;10.20;;;7.50;99.90;;;;;;4966749;28;20037;-78
2022/05/07 05:00:10;;;;;;;20.85;9.35;;;7.60;99.90;;;;;;4967963;28;20027;-78
2022/05/07 05:02:35;;;;;;;45.08;11.75;;;7.60;99.90;;;;;;4968151;28;20038;-78
2022/05/07 05:05:01;;;;;;;122.53;14.43;;;7.80;99.90;;;;;;4967813;28;20038;-78
2022/05/07 05:07:27;;;;;;;34.47;10.43;;;7.80;99.90;;;;;;4966602;28;20042;-78
2022/05/07 05:09:53;;;;;;;23.52;9.82;;;7.80;99.90;;;;;;4966710;28;20058;-78
2022/05/07 05:12:18;;;;;;;27.30;9.13;;;7.90;99.90;;;;;;4967751;28;20515;-78
2022/05/07 05:17:30;;;;;;;23.63;9.68;;;8.20;99.90;;;;;;4968352;28;20046;-79
2022/05/07 05:19:56;;;;;;;27.75;10.80;;;8.30;99.90;;;;;;4966494;28;20139;-77
2022/05/07 05:22:21;;;;;;;26.00;10.23;;;8.50;99.90;;;;;;4968021;28;20503;-78
2022/05/07 05:24:47;;;;;;;38.67;11.15;;;8.50;99.90;;;;;;4967499;28;20031;-76
2022/05/07 05:27:13;;;;;;;42.97;12.20;;;8.50;99.90;;;;;;4969226;28;20077;-78
2022/05/07 05:29:38;;;;;;;34.65;10.82;;;8.50;99.90;;;;;;4969849;28;20518;-79
2022/05/07 05:32:05;;;;;;;109.57;14.95;;;8.60;99.90;;;;;;4968048;28;20518;-78
2022/05/07 05:34:31;;;;;;;30.88;11.35;;;8.50;99.90;;;;;;4967784;28;20181;-78
2022/05/07 05:36:56;;;;;;;42.25;10.93;;;8.60;99.90;;;;;;4971845;28;20150;-78
2022/05/07 05:39:22;;;;;;;64.45;12.27;;;8.70;99.90;;;;;;5002928;28;20038;-78
2022/05/07 05:41:47;;;;;;;35.13;9.95;;;8.70;99.90;;;;;;5002174;28;20053;-78
2022/05/07 05:44:13;;;;;;;49.65;12.13;;;8.80;99.90;;;;;;4987252;28;20280;-79
2022/05/07 05:46:39;;;;;;;31.35;9.15;;;8.90;99.90;;;;;;4987788;28;20109;-80
2022/05/07 05:49:04;;;;;;;28.00;8.50;;;9.10;99.90;;;;;;5002780;28;20027;-78
2022/05/07 05:51:30;;;;;;;24.02;9.70;;;9.40;99.90;;;;;;5002611;28;20034;-80
2022/05/07 05:53:56;;;;;;;30.05;10.20;;;9.40;99.90;;;;;;4990423;28;20125;-81
2022/05/07 05:56:23;;;;;;;30.27;9.85;;;9.50;99.90;;;;;;4992486;28;20045;-82
2022/05/07 05:58:48;;;;;;;77.95;12.40;;;9.60;99.90;;;;;;5004043;28;20057;-78
2022/05/07 06:01:14;;;;;;;24.42;10.27;;;9.80;99.90;;;;;;4990663;28;20452;-79
2022/05/07 06:03:40;;;;;;;89.80;12.77;;;9.90;99.90;;;;;;4988599;28;20407;-78
2022/05/07 06:06:05;;;;;;;31.10;10.60;;;10.00;99.90;;;;;;4992840;28;20459;-82
2022/05/07 06:08:32;;;;;;;55.50;12.60;;;;;;;;;;4995333;28;20034;-82
2022/05/07 06:10:57;;;;;;;34.30;10.23;;;10.10;99.90;;;;;;4995005;28;20035;-82
2022/05/07 06:13:24;;;;;;;24.67;11.77;;;10.40;99.90;;;;;;4990706;28;20384;-81
2022/05/07 06:15:52;;;;;;;59.20;10.20;;;10.50;99.90;;;;;;4992962;28;20089;-82
2022/05/07 06:18:21;;;;;;;32.72;9.00;;;10.60;99.90;;;;;;4996143;28;20038;-81
2022/05/07 06:20:50;;;;;;;;;;;13.00;99.90;;;;;;5000924;28;20034;-80
2022/05/07 06:23:16;;;;;;;25.90;10.25;;;10.80;99.90;;;;;;4980066;28;20406;-80
2022/05/07 06:28:26;;;;;;;21.33;10.45;;;10.90;99.90;;;;;;4984948;28;20038;-82
2022/05/07 06:30:52;;;;;;;17.83;11.02;;;11.20;99.90;;;;;;4983412;28;20022;-82
2022/05/07 06:33:18;;;;;;;17.83;10.10;;;11.40;99.90;;;;;;4972956;28;20043;-81
2022/05/07 06:35:45;;;;;;;24.55;10.80;;;11.40;99.90;;;;;;4984600;28;20031;-82
2022/05/07 06:38:11;;;;;;;21.85;9.50;;;11.30;99.90;;;;;;5001190;28;20085;-81
2022/05/07 06:40:38;;;;;;;16.92;9.48;;;11.30;99.90;;;;;;4998309;28;20023;-81
2022/05/07 06:43:07;;;;;;;15.52;9.52;;;11.30;99.90;;;;;;5015898;28;20065;-80
2022/05/07 06:45:33;;;;;;;19.67;10.85;;;11.50;99.90;;;;;;5013059;28;20014;-82
2022/05/07 06:48:00;;;;;;;17.90;9.73;;;11.50;99.90;;;;;;4998734;28;20057;-81
2022/05/07 06:50:26;;;;;;;16.40;10.93;;;11.70;99.90;;;;;;5008765;28;20365;-81
2022/05/07 06:52:51;;;;;;;16.05;8.63;;;11.70;99.90;;;;;;5007082;28;20035;-80
2022/05/07 06:55:18;;;;;;;18.98;10.55;;;11.30;99.90;;;;;;5007282;28;20037;-81
2022/05/07 06:57:45;;;;;;;20.83;10.25;;;11.40;99.90;;;;;;4991947;28;20487;-80
2022/05/07 07:00:12;;;;;;;15.65;9.18;;;11.80;99.90;;;;;;5009805;28;20528;-82
2022/05/07 07:02:38;;;;;;;18.10;9.60;;;11.80;99.90;;;;;;4993189;28;20078;-79
2022/05/07 07:05:05;;;;;;;15.38;8.73;;;11.70;99.90;;;;;;5012067;28;20501;-80
2022/05/07 07:07:31;;;;;;;17.23;9.00;;;12.10;99.90;;;;;;4995283;28;20118;-82
2022/05/07 07:09:57;;;;;;;16.65;9.73;;;11.90;99.90;;;;;;5002932;28;20420;-79
2022/05/07 07:12:23;;;;;;;14.02;8.57;;;11.80;99.90;;;;;;4995981;28;20025;-79
2022/05/07 07:14:50;;;;;;;13.20;8.38;;;12.10;99.90;;;;;;4992695;28;20034;-80
2022/05/07 07:17:17;;;;;;;15.05;8.57;;;12.10;99.90;;;;;;4993047;28;20085;-81
2022/05/07 07:19:46;;;;;;;14.65;8.80;;;12.00;99.90;;;;;;4999944;28;20418;-80
2022/05/07 07:22:13;;;;;;;20.75;10.73;;;12.10;99.90;;;;;;5015592;28;20084;-82
2022/05/07 07:24:38;;;;;;;17.27;9.52;;;12.00;99.90;;;;;;5006686;28;20122;-80
2022/05/07 07:27:08;;;;;;;14.15;8.65;;;12.40;99.90;;;;;;4998629;28;20038;-83
2022/05/07 07:29:54;;;;;;;14.57;9.32;;;12.40;99.90;;;;;;5006522;28;20062;-81
2022/05/07 07:32:19;;;;;;;17.20;10.13;;;12.30;99.90;;;;;;5016477;28;20644;-78
2022/05/07 07:34:45;;;;;;;18.13;9.85;;;12.10;99.90;;;;;;5006590;28;20173;-79
2022/05/07 07:37:32;;;;;;;17.80;9.85;;;12.40;99.90;;;;;;5016690;28;20066;-80
2022/05/07 07:40:00;;;;;;;15.55;8.40;;;12.40;99.90;;;;;;5017164;28;20045;-81
2022/05/07 07:48:01;;;;;;;13.85;9.23;;;12.30;99.90;;;;;;4956554;28;20103;-82
2022/05/07 07:50:30;;;;;;;13.27;8.77;;;13.30;99.90;;;;;;4979316;28;20028;-83
2022/05/07 07:53:01;;;;;;;13.27;7.82;;;13.30;99.90;;;;;;4975226;28;20011;-81
2022/05/07 07:55:27;;;;;;;14.50;8.43;;;14.50;99.90;;;;;;4961447;28;20106;-82
2022/05/07 07:57:58;;;;;;;14.63;7.93;;;14.90;99.90;;;;;;4950489;29;20535;-89
2022/05/07 08:00:26;;;;;;;9.48;5.97;;;15.70;99.90;;;;;;4949006;28;20079;-91
2022/05/07 08:03:05;;;;;;;7.05;6.05;;;15.80;99.90;;;;;;4948989;28;20057;-89
2022/05/07 08:05:36;;;;;;;9.88;6.88;;;16.50;99.90;;;;;;4949404;28;20070;-88
2022/05/07 08:13:59;;;;;;;11.05;6.97;;;16.00;99.90;;;;;;4954572;29;20042;-83
2022/05/07 08:16:25;;;;;;;9.48;6.30;;;17.30;99.90;;;;;;4960012;29;20023;-81
2022/05/07 08:18:57;;;;;;;7.38;5.05;;;15.40;99.90;;;;;;4970220;28;20220;-82
2022/05/07 08:21:23;;;;;;;7.15;5.60;;;15.40;99.90;;;;;;4973484;28;20031;-83
2022/05/07 08:23:49;;;;;;;12.63;5.82;;;;;;;;;;4972762;28;20023;-82
2022/05/07 08:26:15;;;;;;;7.00;5.43;;;15.80;99.90;;;;;;4975217;29;20103;-81
2022/05/07 08:28:42;;;;;;;9.70;6.40;;;;;;;;;;4975300;28;20083;-82
2022/05/07 08:31:33;;;;;;;6.70;5.18;;;16.30;99.90;;;;;;4977750;28;20035;-83
2022/05/07 08:34:01;;;;;;;7.90;4.90;;;16.00;99.90;;;;;;4978599;28;20047;-83
2022/05/07 08:36:26;;;;;;;7.47;5.43;;;16.20;99.90;;;;;;4965090;28;20023;-83
2022/05/07 08:38:52;;;;;;;8.40;6.43;;;16.30;99.90;;;;;;4965669;28;20023;-82
2022/05/07 08:41:18;;;;;;;8.45;5.40;;;16.30;99.90;;;;;;4963647;28;20053;-83
2022/05/07 08:43:44;;;;;;;10.32;6.40;;;16.00;99.90;;;;;;4957880;28;20051;-83
2022/05/07 08:46:20;;;;;;;8.57;5.20;;;16.40;99.90;;;;;;4966420;28;20097;-85
2022/05/07 08:48:47;;;;;;;9.70;5.80;;;15.80;99.90;;;;;;4960546;28;20035;-82
2022/05/07 08:51:18;;;;;;;9.88;5.15;;;16.20;99.90;;;;;;4957573;28;20051;-83
2022/05/07 08:53:44;;;;;;;8.65;5.22;;;16.50;99.90;;;;;;4947690;28;20049;-82
2022/05/07 08:56:11;;;;;;;6.85;4.40;;;16.50;99.90;;;;;;4948044;29;20081;-83
2022/05/07 08:58:38;;;;;;;17.58;6.07;;;17.10;99.90;;;;;;4947240;28;20011;-83
2022/05/07 09:01:05;;;;;;;8.18;5.35;;;16.90;99.90;;;;;;4954648;28;20027;-81
2022/05/07 09:03:43;;;;;;;10.77;6.45;;;17.10;99.90;;;;;;4953079;28;20083;-82
2022/05/07 09:06:35;;;;;;;5.40;4.75;;;17.20;99.90;;;;;;4954001;28;20093;-81
2022/05/07 09:09:06;;;;;;;9.75;4.50;;;17.50;99.90;;;;;;4952589;29;20038;-84
2022/05/07 09:11:44;;;;;;;6.47;4.72;;;17.60;99.90;;;;;;4946008;28;20039;-83
2022/05/07 09:14:11;;;;;;;10.32;5.28;;;17.60;99.90;;;;;;4947495;29;20110;-83
2022/05/07 09:16:46;;;;;;;7.85;5.57;;;17.50;99.90;;;;;;4946358;28;20105;-84
2022/05/07 09:19:27;;;;;;;8.20;4.75;;;17.50;99.90;;;;;;4946767;28;20732;-84
2022/05/07 09:22:04;;;;;;;8.75;6.15;;;17.80;99.90;;;;;;4946211;28;20472;-83
2022/05/07 09:24:30;;;;;;;10.48;6.72;;;17.60;99.90;;;;;;4948391;28;20036;-82
2022/05/07 09:26:59;;;;;;;9.13;4.72;;;18.60;99.90;;;;;;4949597;28;20023;-82
2022/05/07 09:29:28;;;;;;;6.15;5.03;;;17.70;99.90;;;;;;4947542;29;20023;-82
2022/05/07 09:31:54;;;;;;;7.50;4.93;;;17.90;99.90;;;;;;4947642;28;20028;-85
2022/05/07 09:37:18;;;;;;;7.07;5.30;;;17.50;99.90;;;;;;4954395;28;20498;-83
2022/05/07 09:39:52;;;;;;;10.88;5.55;;;17.50;99.90;;;;;;4974111;28;20026;-84
2022/05/07 09:42:22;;;;;;;6.45;4.75;;;17.50;99.90;;;;;;4965529;28;20027;-84
2022/05/07 09:44:48;;;;;;;8.05;5.00;;;21.70;99.90;;;;;;4965392;28;20142;-82
2022/05/07 09:47:15;;;;;;;7.35;4.53;;;18.70;99.90;;;;;;4965543;28;20547;-82
2022/05/07 09:52:28;;;;;;;5.70;4.38;;;18.20;99.90;;;;;;4967457;28;20173;-87
2022/05/07 09:57:40;;;;;;;6.72;3.95;;;18.10;99.90;;;;;;4968165;28;20089;-81
2022/05/07 10:00:07;;;;;;;6.07;3.78;;;;;;;;;;4993194;28;20019;-84
2022/05/07 10:02:51;;;;;;;7.15;4.55;;;17.80;99.90;;;;;;4985864;28;20058;-81
2022/05/07 10:05:46;;;;;;;6.40;3.63;;;18.40;99.90;;;;;;4970385;28;20154;-86
2022/05/07 10:08:18;;;;;;;5.45;4.07;;;;;;;;;;4969058;28;20049;-84
2022/05/07 10:10:48;;;;;;;6.45;4.55;;;18.60;99.90;;;;;;4969118;28;20490;-81
2022/05/07 10:13:19;;;;;;;7.38;4.50;;;18.70;99.90;;;;;;4971612;28;20030;-83
2022/05/07 10:15:46;;;;;;;8.32;4.90;;;18.60;99.90;;;;;;4972560;28;20109;-85
2022/05/07 10:18:16;;;;;;;7.93;3.72;;;18.60;99.90;;;;;;4970469;28;20489;-87
2022/05/07 10:20:46;;;;;;;6.07;4.57;;;18.60;99.90;;;;;;4970964;28;20038;-86
2022/05/07 10:23:13;;;;;;;7.32;4.30;;;19.10;99.90;;;;;;4971312;28;20047;-85
2022/05/07 10:25:43;;;;;;;5.82;4.55;;;19.00;99.90;;;;;;4970651;28;20031;-87
2022/05/07 10:28:13;;;;;;;6.07;3.63;;;;;;;;;;4970526;28;20035;-87
2022/05/07 10:30:49;;;;;;;5.60;4.03;;;19.00;99.90;;;;;;4970718;28;20030;-84
2022/05/07 10:33:25;;;;;;;6.93;3.88;;;19.00;99.90;;;;;;4970211;28;20054;-84
2022/05/07 10:35:53;;;;;;;5.78;3.95;;;19.30;99.90;;;;;;4988230;28;20082;-80
2022/05/07 10:38:33;;;;;;;5.13;4.13;;;18.90;99.90;;;;;;4970435;28;20031;-82
2022/05/07 10:41:00;;;;;;;;;;;18.70;99.90;;;;;;4954434;29;20540;-82
2022/05/07 10:43:28;;;;;;;6.70;4.32;;;19.30;99.00;;;;;;4983588;28;19930;-80
2022/05/07 10:46:04;;;;;;;5.45;3.42;;;19.40;87.70;;;;;;4952087;29;20015;-90
2022/05/07 10:48:46;;;;;;;8.45;4.63;;;19.70;89.80;;;;;;4950409;29;20121;-85
2022/05/07 10:51:31;;;;;;;5.68;3.70;;;20.00;99.50;;;;;;4950798;29;20027;-88
2022/05/07 10:54:03;;;;;;;5.18;4.68;;;20.70;85.00;;;;;;4948681;29;20122;-82
2022/05/07 10:56:31;;;;;;;5.22;4.07;;;20.80;79.00;;;;;;4949433;29;20118;-86
2022/05/07 10:58:57;;;;;;;6.88;4.10;;;20.30;92.50;;;;;;4951505;29;20112;-89
2022/05/07 11:01:25;;;;;;;5.88;3.70;;;20.20;97.70;;;;;;4949628;29;20046;-90
2022/05/07 11:04:05;;;;;;;3.58;3.05;;;20.10;98.10;;;;;;4950433;29;20035;-85
2022/05/07 11:06:52;;;;;;;7.05;4.25;;;20.80;90.10;;;;;;4950028;29;20373;-86
2022/05/07 11:09:19;;;;;;;7.63;4.38;;;21.30;79.70;;;;;;4949888;28;20058;-87
2022/05/07 11:11:47;;;;;;;7.20;3.10;;;21.10;76.10;;;;;;4949507;28;20023;-87
2022/05/07 11:14:24;;;;;;;7.53;3.67;;;21.50;70.80;;;;;;4950665;29;20035;-90
2022/05/07 11:16:51;;;;;;;6.55;4.43;;;20.70;71.50;;;;;;4950719;29;20032;-88
2022/05/07 11:19:42;;;;;;;4.85;3.47;;;21.20;71.40;;;;;;4951097;29;20083;-88
2022/05/07 11:22:10;;;;;;;4.68;3.22;;;21.80;65.90;;;;;;4947861;29;20043;-89
2022/05/07 11:24:36;;;;;;;3.72;3.05;;;21.30;65.40;;;;;;4950336;29;20314;-88
2022/05/07 11:27:05;;;;;;;4.40;2.85;;;20.60;75.00;;;;;;4951124;29;20284;-86
2022/05/07 11:29:31;;;;;;;;;;;21.00;71.80;;;;;;4951750;29;20042;-87
2022/05/07 11:32:07;;;;;;;4.97;2.88;;;21.90;67.80;;;;;;4950547;29;19910;-85
2022/05/07 11:34:41;;;;;;;5.43;3.20;;;22.10;65.10;;;;;;4950080;29;20380;-88
2022/05/07 11:37:14;;;;;;;3.25;2.90;;;21.90;65.90;;;;;;4955909;28;20019;-87
2022/05/07 11:39:59;;;;;;;2.88;2.17;;;21.90;63.20;;;;;;4969476;28;20081;-88
2022/05/07 11:42:32;;;;;;;2.88;1.95;;;21.50;70.60;;;;;;4968957;28;20412;-88
2022/05/07 11:47:54;;;;;;;2.65;1.88;;;22.20;62.40;;;;;;4970942;28;20041;-87
2022/05/07 11:50:29;;;;;;;2.58;2.38;;;22.80;65.80;;;;;;4969161;28;20030;-87
2022/05/07 11:52:56;;;;;;;2.28;2.13;;;21.60;63.20;;;;;;4968851;28;20138;-86
2022/05/07 11:55:27;;;;;;;3.08;2.45;;;22.70;62.30;;;;;;4969150;28;20067;-87
2022/05/07 11:57:53;;;;;;;3.78;2.17;;;21.30;61.80;;;;;;4968888;28;20029;-85
2022/05/07 12:00:21;;;;;;;1.70;1.60;;;22.10;63.20;;;;;;4969806;28;20023;-87
2022/05/07 12:03:01;;;;;;;4.82;2.40;;;22.10;61.00;;;;;;4968955;28;20266;-86
2022/05/07 12:05:57;;;;;;;3.22;2.67;;;22.60;62.90;;;;;;4968501;28;20034;-86
2022/05/07 12:08:29;;;;;;;3.88;2.60;;;23.30;60.70;;;;;;4968229;28;20065;-87
2022/05/07 12:10:55;;;;;;;2.58;2.38;;;23.50;59.00;;;;;;4968957;28;20019;-87
2022/05/07 12:13:23;;;;;;;4.57;2.95;;;23.30;57.40;;;;;;4968424;28;20027;-87
2022/05/07 12:18:35;;;;;;;5.60;2.63;;;23.60;57.70;;;;;;4970238;28;20034;-87
2022/05/07 12:21:01;;;;;;;2.20;2.00;;;24.40;57.20;;;;;;4968534;28;20099;-86
2022/05/07 12:31:40;;;;;;;1.92;1.83;;;23.70;59.60;;;;;;4969775;28;20407;-88
2022/05/07 12:34:06;;;;;;;2.40;2.13;;;;;;;;;;4969177;28;20031;-86
2022/05/07 12:36:32;;;;;;;1.90;1.67;;;23.60;56.80;;;;;;4967645;28;20122;-88
2022/05/07 12:38:59;;;;;;;2.00;1.83;;;;;;;;;;4949209;29;20104;-93
2022/05/07 12:41:26;;;;;;;1.80;1.20;;;24.80;55.80;;;;;;4953085;29;20031;-86
2022/05/07 12:43:53;;;;;;;2.65;1.63;;;23.90;54.70;;;;;;4957052;29;20148;-95
2022/05/07 12:46:19;;;;;;;1.65;1.50;;;25.00;57.30;;;;;;4951720;29;20374;-89
2022/05/07 12:48:45;;;;;;;2.90;2.05;;;24.90;57.80;;;;;;4950696;29;20074;-89
2022/05/07 12:51:11;;;;;;;2.00;1.50;;;24.70;56.50;;;;;;4949320;29;20027;-91
2022/05/07 12:53:37;;;;;;;1.55;1.45;;;25.00;56.80;;;;;;4950115;29;20031;-91
2022/05/07 12:56:07;;;;;;;4.10;2.45;;;25.70;55.70;;;;;;4957507;29;20055;-82
2022/05/07 12:58:33;;;;;;;1.88;1.58;;;24.90;55.20;;;;;;4955194;28;20106;-93
2022/05/07 13:01:00;;;;;;;2.58;2.38;;;;;;;;;;4952226;29;20059;-96
2022/05/07 13:03:26;;;;;;;3.45;1.77;;;24.90;55.40;;;;;;4950304;29;20043;-88
2022/05/07 13:05:52;;;;;;;1.13;1.10;;;24.40;57.20;;;;;;4949368;29;20099;-90
2022/05/07 13:08:18;;;;;;;2.33;1.20;;;25.00;57.20;;;;;;4949894;29;20127;-94
2022/05/07 13:10:43;;;;;;;1.30;1.20;;;25.40;56.60;;;;;;4948150;29;20024;-88
2022/05/07 13:13:10;;;;;;;3.50;1.70;;;24.70;58.40;;;;;;4950744;29;20082;-90
2022/05/07 13:15:36;;;;;;;3.55;1.58;;;25.00;54.00;;;;;;4957146;29;20027;-94
2022/05/07 13:18:02;;;;;;;0.95;0.95;;;24.30;55.60;;;;;;4948949;29;20130;-96
2022/05/07 13:23:09;;;;;;;1.38;1.00;;;;;;;;;;5796334;23;20074;-82
2022/05/07 13:25:43;;;;;;;;;;;21.80;58.60;;;;;;4957926;28;20047;-94
2022/05/07 13:28:09;;;;;;;2.85;1.50;;;22.70;58.10;;;;;;4972003;28;19919;-88
2022/05/07 13:30:35;;;;;;;5.43;1.05;;;23.70;58.70;;;;;;4949149;28;20035;-86
2022/05/07 13:33:01;;;;;;;4.80;1.23;;;;;;;;;;4948840;28;20074;-91
2022/05/07 13:35:30;;;;;;;1.77;1.55;;;;;;;;;;4950614;28;20059;-90
2022/05/07 13:37:56;;;;;;;0.90;0.90;;;;;;;;;;4964622;28;20038;-88
2022/05/07 13:40:22;;;;;;;3.38;1.10;;;22.80;56.00;;;;;;4971366;28;20034;-85
2022/05/07 13:42:48;;;;;;;1.30;1.25;;;;;;;;;;4971596;28;20034;-94
2022/05/07 13:45:15;;;;;;;1.52;1.42;;;;;;;;;;4972578;28;20294;-90
2022/05/07 13:47:41;;;;;;;2.45;1.23;;;22.90;56.10;;;;;;4972319;28;20029;-92
2022/05/07 13:50:09;;;;;;;1.27;1.17;;;23.00;55.80;;;;;;4973243;28;20037;-92